createdAt,value
2023-02-09T00:02:00.942Z,61.90
2023-02-09T00:05:08.333Z,60.30
2023-02-09T00:08:14.517Z,61.50
2023-02-09T00:14:26.666Z,62.40
2023-02-09T00:17:33.436Z,62.10
2023-02-09T00:20:39.690Z,58.40
2023-02-09T00:23:46.200Z,59.80
2023-02-09T00:26:52.633Z,61.60
2023-02-09T00:29:58.945Z,57.50
2023-02-09T00:33:05.274Z,57.90
2023-02-09T00:36:14.511Z,55.30
2023-02-09T00:39:20.716Z,59.90
2023-02-09T00:42:26.926Z,59.80
2023-02-09T00:45:33.572Z,55.00
2023-02-09T00:48:39.917Z,52.70
2023-02-09T00:51:46.632Z,53.20
2023-02-09T00:54:52.973Z,56.70
2023-02-09T00:57:59.149Z,53.50
2023-02-09T01:01:05.480Z,59.30
2023-02-09T01:04:11.712Z,60.50
2023-02-09T01:07:17.945Z,56.30
2023-02-09T01:10:24.554Z,54.30
2023-02-09T01:13:31.150Z,55.00
2023-02-09T01:16:37.406Z,51.20
2023-02-09T01:19:43.627Z,52.30
2023-02-09T01:22:50.052Z,52.40
2023-02-09T01:26:04.647Z,50.70
2023-02-09T01:29:13.040Z,50.50
2023-02-09T01:32:19.176Z,56.30
2023-02-09T01:38:30.591Z,56.30
2023-02-09T01:41:37.043Z,60.00
2023-02-09T01:45:17.911Z,62.80
2023-02-09T01:48:27.424Z,60.10
2023-02-09T01:51:37.906Z,59.30
2023-02-09T01:54:47.715Z,58.90
2023-02-09T01:57:56.744Z,56.80
2023-02-09T02:01:03.205Z,58.20
2023-02-09T02:04:09.839Z,56.50
2023-02-09T02:07:21.843Z,57.70
2023-02-09T02:10:28.317Z,54.70
2023-02-09T02:13:34.562Z,53.40
2023-02-09T02:16:55.177Z,54.50
2023-02-09T02:20:33.298Z,55.00
2023-02-09T02:23:48.692Z,62.50
2023-02-09T02:26:59.679Z,65.30
2023-02-09T02:30:35.270Z,59.90
2023-02-09T02:33:50.974Z,60.30
2023-02-09T02:37:05.253Z,62.90
2023-02-09T02:40:21.841Z,64.50
2023-02-09T02:43:41.705Z,64.90
2023-02-09T02:46:52.080Z,59.60
2023-02-09T02:50:04.953Z,57.40
2023-02-09T02:53:14.936Z,59.20
2023-02-09T02:56:25.823Z,69.30
2023-02-09T02:59:35.207Z,55.40
2023-02-09T03:02:44.831Z,49.30
2023-02-09T03:05:51.917Z,50.10
2023-02-09T03:08:59.569Z,52.10
2023-02-09T03:12:14.157Z,53.80
2023-02-09T03:15:31.710Z,57.60
2023-02-09T03:18:45.355Z,55.80
2023-02-09T03:21:57.114Z,56.90
2023-02-09T03:25:07.693Z,55.10
2023-02-09T03:28:19.569Z,56.20
2023-02-09T03:31:26.710Z,58.60
2023-02-09T03:34:32.940Z,57.10
2023-02-09T03:37:39.644Z,53.40
2023-02-09T03:40:46.559Z,56.50
2023-02-09T03:44:10.607Z,55.10
2023-02-09T03:47:16.771Z,57.10
2023-02-09T03:50:23.072Z,56.50
2023-02-09T03:53:29.406Z,55.10
2023-02-09T03:56:37.647Z,57.80
2023-02-09T03:59:43.942Z,57.70
2023-02-09T04:02:50.191Z,62.00
2023-02-09T04:05:56.690Z,59.40
2023-02-09T04:09:03.994Z,62.50
2023-02-09T04:12:10.570Z,59.80
2023-02-09T04:15:16.890Z,57.50
2023-02-09T04:18:23.541Z,57.90
2023-02-09T04:21:29.810Z,55.50
2023-02-09T04:24:36.281Z,55.70
2023-02-09T04:27:42.468Z,57.40
2023-02-09T04:30:52.414Z,56.40
2023-02-09T04:33:58.660Z,60.70
2023-02-09T04:37:04.928Z,51.90
2023-02-09T04:40:12.900Z,54.20
2023-02-09T04:43:19.992Z,59.40
2023-02-09T04:46:26.272Z,58.40
2023-02-09T04:49:32.629Z,57.60
2023-02-09T04:52:38.805Z,59.70
2023-02-09T04:55:46.716Z,57.20
2023-02-09T04:59:10.448Z,54.70
2023-02-09T05:02:16.604Z,49.40
2023-02-09T05:05:22.989Z,44.50
2023-02-09T05:08:30.106Z,45.40
2023-02-09T05:11:36.321Z,51.30
2023-02-09T05:14:42.590Z,56.10
2023-02-09T05:17:48.926Z,49.00
2023-02-09T05:20:55.473Z,50.30
2023-02-09T05:24:01.758Z,56.20
2023-02-09T05:27:08.010Z,56.90
2023-02-09T05:30:15.573Z,56.60
2023-02-09T05:33:22.006Z,57.50
2023-02-09T05:36:28.334Z,58.10
2023-02-09T05:39:34.710Z,59.50
2023-02-09T05:42:41.186Z,54.50
2023-02-09T05:45:48.439Z,56.00
2023-02-09T05:48:54.726Z,51.60
2023-02-09T05:52:01.025Z,43.20
2023-02-09T05:55:07.988Z,42.40
2023-02-09T05:58:14.618Z,42.50
2023-02-09T06:01:20.943Z,40.10
2023-02-09T06:04:27.853Z,38.60
2023-02-09T06:07:34.033Z,54.10
2023-02-09T06:10:40.075Z,56.70
2023-02-09T06:16:50.774Z,53.10
2023-02-09T06:19:56.981Z,66.80
2023-02-09T06:23:03.273Z,70.20
2023-02-09T06:26:11.989Z,60.30
2023-02-09T06:29:18.203Z,58.10
2023-02-09T06:32:24.376Z,53.80
2023-02-09T06:35:30.638Z,53.60
2023-02-09T06:38:38.129Z,55.10
2023-02-09T06:41:44.331Z,52.40
2023-02-09T06:44:50.552Z,53.40
2023-02-09T06:47:56.754Z,51.80
2023-02-09T06:51:03.110Z,51.60
2023-02-09T06:54:09.819Z,45.50
2023-02-09T06:57:16.078Z,48.70
2023-02-09T07:00:23.891Z,48.30
2023-02-09T07:03:30.870Z,44.70
2023-02-09T07:06:37.144Z,42.90
2023-02-09T07:09:43.366Z,49.20
2023-02-09T07:12:49.708Z,47.10
2023-02-09T07:16:00.936Z,47.80
2023-02-09T07:19:07.216Z,47.40
2023-02-09T07:22:13.543Z,49.10
2023-02-09T07:25:19.957Z,52.60
2023-02-09T07:28:26.432Z,51.20
2023-02-09T07:31:32.701Z,50.80
2023-02-09T07:34:38.996Z,47.40
2023-02-09T07:37:45.441Z,50.00
2023-02-09T07:40:51.921Z,49.20
2023-02-09T07:43:58.457Z,48.90
2023-02-09T07:47:04.828Z,50.70
2023-02-09T07:50:12.014Z,60.80
2023-02-09T07:53:18.502Z,55.00
2023-02-09T07:56:25.050Z,53.30
2023-02-09T07:59:31.294Z,54.10
2023-02-09T08:02:38.987Z,47.00
2023-02-09T08:05:52.641Z,48.80
2023-02-09T08:09:01.077Z,43.10
2023-02-09T08:12:09.710Z,39.60
2023-02-09T08:15:18.030Z,38.10
2023-02-09T08:18:26.440Z,37.70
2023-02-09T08:21:35.527Z,36.50
2023-02-09T08:24:42.400Z,35.40
2023-02-09T08:27:49.494Z,36.10
2023-02-09T08:30:55.836Z,34.50
2023-02-09T08:34:02.087Z,36.50
2023-02-09T08:37:08.207Z,38.30
2023-02-09T08:43:21.383Z,36.30
2023-02-09T08:46:27.930Z,37.90
2023-02-09T08:49:34.305Z,50.10
2023-02-09T08:55:45.317Z,46.00
2023-02-09T08:58:51.959Z,47.60
2023-02-09T09:01:58.213Z,45.60
2023-02-09T09:08:09.688Z,39.30
2023-02-09T09:11:16.066Z,39.50
2023-02-09T09:14:22.292Z,41.20
2023-02-09T09:20:33.216Z,41.70
2023-02-09T09:23:39.674Z,36.50
2023-02-09T09:26:46.524Z,30.20
2023-02-09T09:29:52.843Z,30.50
2023-02-09T09:32:59.068Z,31.90
2023-02-09T09:39:10.133Z,25.20
2023-02-09T09:45:31.699Z,26.90
2023-02-09T09:48:44.625Z,27.10
2023-02-09T09:51:54.844Z,26.30
2023-02-09T09:55:02.540Z,27.80
2023-02-09T09:58:17.173Z,25.70
2023-02-09T10:01:23.508Z,27.00
2023-02-09T10:04:31.558Z,24.50
2023-02-09T10:07:39.129Z,23.40
2023-02-09T10:10:50.973Z,24.00
2023-02-09T10:13:58.640Z,22.20
2023-02-09T10:17:05.274Z,22.20
2023-02-09T10:20:13.437Z,22.20
2023-02-09T10:23:23.921Z,20.80
2023-02-09T10:26:32.326Z,20.30
2023-02-09T10:29:38.868Z,19.40
2023-02-09T10:32:46.471Z,18.30
2023-02-09T10:35:55.077Z,17.80
2023-02-09T10:39:19.904Z,15.70
2023-02-09T10:42:30.346Z,15.80
2023-02-09T10:45:42.024Z,13.90
2023-02-09T10:48:49.001Z,13.90
2023-02-09T10:52:07.177Z,13.80
2023-02-09T10:55:21.312Z,12.30
2023-02-09T10:58:31.392Z,13.80
2023-02-09T11:01:43.448Z,12.10
2023-02-09T11:04:50.083Z,12.10
2023-02-09T11:08:00.368Z,11.20
2023-02-09T11:11:10.452Z,11.90
2023-02-09T11:14:18.545Z,12.30
2023-02-09T11:17:36.531Z,10.80
2023-02-09T11:20:46.330Z,10.90
2023-02-09T11:24:03.234Z,10.60
2023-02-09T11:27:23.609Z,10.70
2023-02-09T11:30:45.909Z,10.80
2023-02-09T11:34:02.017Z,9.60
2023-02-09T11:37:21.356Z,11.00
2023-02-09T11:40:33.297Z,10.30
2023-02-09T11:43:42.495Z,11.60
2023-02-09T11:46:50.683Z,10.50
2023-02-09T11:49:59.322Z,10.80
2023-02-09T11:53:13.023Z,10.30
2023-02-09T11:56:21.209Z,11.10
2023-02-09T11:59:34.156Z,11.70
2023-02-09T12:02:52.188Z,11.40
2023-02-09T12:05:58.647Z,12.30
2023-02-09T12:12:27.163Z,11.60
2023-02-09T12:15:43.001Z,11.00
2023-02-09T12:18:49.690Z,10.70
2023-02-09T12:21:55.976Z,11.50
2023-02-09T12:25:19.754Z,9.90
2023-02-09T12:28:46.991Z,9.10
2023-02-09T12:32:35.978Z,9.20
2023-02-09T12:35:43.576Z,8.50
2023-02-09T12:39:05.098Z,8.50
2023-02-09T12:42:31.328Z,8.70
2023-02-09T12:45:39.778Z,7.60
2023-02-09T12:49:04.522Z,9.20
2023-02-09T12:52:20.349Z,9.00
2023-02-09T12:55:27.375Z,7.90
2023-02-09T12:59:10.482Z,7.70
2023-02-09T13:02:28.178Z,5.80
2023-02-09T13:05:38.966Z,5.30
2023-02-09T13:08:53.555Z,4.50
2023-02-09T13:12:07.638Z,4.40
2023-02-09T13:15:19.331Z,4.80
2023-02-09T13:18:35.160Z,4.90
2023-02-09T13:21:48.538Z,5.50
2023-02-09T13:24:59.826Z,4.60
2023-02-09T13:28:16.395Z,5.10
2023-02-09T13:31:39.774Z,5.20
2023-02-09T13:34:55.458Z,5.40
2023-02-09T13:38:08.460Z,5.60
2023-02-09T13:41:28.492Z,5.40
2023-02-09T13:44:36.957Z,5.00
2023-02-09T13:47:49.395Z,5.00
2023-02-09T13:50:57.433Z,5.60
2023-02-09T13:54:05.101Z,5.70
2023-02-09T13:57:23.779Z,5.20
2023-02-09T14:00:37.486Z,4.90
2023-02-09T14:03:57.805Z,5.50
2023-02-09T14:07:08.499Z,7.70
2023-02-09T14:10:18.209Z,7.60
2023-02-09T14:13:28.836Z,8.20
2023-02-09T14:16:44.724Z,8.30
2023-02-09T14:20:00.390Z,10.00
2023-02-09T14:23:17.517Z,10.90
2023-02-09T14:26:27.714Z,8.80
2023-02-09T14:29:36.141Z,7.40
2023-02-09T14:32:45.569Z,8.60
2023-02-09T14:35:59.348Z,8.10
2023-02-09T14:39:14.036Z,9.30
2023-02-09T14:42:20.793Z,9.30
2023-02-09T14:45:39.420Z,13.20
2023-02-09T14:48:45.853Z,10.50
2023-02-09T14:55:00.026Z,12.50
2023-02-09T14:58:13.944Z,11.20
2023-02-09T15:01:20.272Z,7.90
2023-02-09T15:07:37.588Z,5.70
2023-02-09T15:10:48.526Z,5.90
2023-02-09T15:13:58.497Z,5.90
2023-02-09T15:17:11.106Z,5.50
2023-02-09T15:20:21.447Z,6.10
2023-02-09T15:23:27.934Z,6.30
2023-02-09T15:26:37.272Z,7.00
2023-02-09T15:29:43.418Z,7.10
2023-02-09T15:32:49.961Z,6.70
2023-02-09T15:35:59.551Z,6.10
2023-02-09T15:39:08.255Z,6.90
2023-02-09T15:42:35.502Z,6.70
2023-02-09T15:46:10.552Z,6.80
2023-02-09T15:49:16.822Z,7.40
2023-02-09T15:55:29.096Z,6.50
2023-02-09T15:58:37.340Z,7.20
2023-02-09T16:01:43.768Z,10.40
2023-02-09T16:04:50.232Z,50.30
2023-02-09T16:11:02.158Z,21.40
2023-02-09T16:14:17.772Z,12.10
2023-02-09T16:17:24.108Z,8.90
2023-02-09T16:23:37.428Z,10.40
2023-02-09T16:26:43.633Z,13.90
2023-02-09T16:29:49.910Z,16.20
2023-02-09T16:32:57.080Z,52.60
2023-02-09T16:36:05.289Z,20.70
2023-02-09T16:39:18.926Z,25.60
2023-02-09T16:42:26.535Z,17.10
2023-02-09T16:45:38.809Z,19.40
2023-02-09T16:48:47.917Z,13.50
2023-02-09T16:51:56.314Z,14.10
2023-02-09T16:55:07.717Z,22.50
2023-02-09T16:58:16.706Z,51.90
2023-02-09T17:01:24.216Z,29.70
2023-02-09T17:04:30.678Z,16.70
2023-02-09T17:11:00.554Z,18.50
2023-02-09T17:14:06.876Z,17.30
2023-02-09T17:20:30.440Z,25.70
2023-02-09T17:23:37.043Z,20.40
2023-02-09T17:26:43.557Z,19.30
2023-02-09T17:29:49.874Z,20.40
2023-02-09T17:39:33.106Z,48.50
2023-02-09T17:45:49.094Z,19.90
2023-02-09T17:48:55.587Z,19.80
2023-02-09T17:52:01.846Z,21.80
2023-02-09T17:58:13.577Z,25.40
2023-02-09T18:01:27.441Z,24.20
2023-02-09T18:04:33.891Z,21.50
2023-02-09T18:07:40.262Z,46.20
2023-02-09T18:13:51.100Z,32.10
2023-02-09T18:20:02.584Z,27.80
2023-02-09T18:26:13.706Z,41.00
2023-02-09T18:32:24.669Z,27.80
2023-02-09T18:35:34.346Z,38.50
2023-02-09T18:38:41.064Z,30.60
2023-02-09T18:41:54.429Z,48.90
2023-02-09T18:45:01.240Z,22.10
2023-02-09T18:51:12.635Z,57.70
2023-02-09T18:54:19.048Z,28.30
2023-02-09T18:57:25.273Z,22.20
2023-02-09T19:00:32.697Z,29.50
2023-02-09T19:03:38.945Z,20.00
2023-02-09T19:09:49.897Z,18.40
2023-02-09T19:16:01.957Z,16.50
2023-02-09T19:19:09.617Z,43.80
2023-02-09T19:22:19.816Z,78.60
2023-02-09T19:25:29.018Z,45.80
2023-02-09T19:28:36.265Z,53.80
2023-02-09T19:31:42.863Z,52.90
2023-02-09T19:34:50.000Z,20.60
2023-02-09T19:37:57.651Z,36.70
2023-02-09T19:41:12.055Z,35.10
2023-02-09T19:44:18.534Z,38.50
2023-02-09T19:47:27.488Z,34.30
2023-02-09T19:50:33.910Z,110.70
2023-02-09T19:53:40.169Z,214.10
2023-02-09T19:59:51.664Z,36.90
2023-02-09T20:06:05.750Z,66.00
2023-02-09T20:09:12.470Z,20.30
2023-02-09T20:12:19.279Z,21.80
2023-02-09T20:15:25.727Z,57.80
2023-02-09T20:18:32.171Z,41.40
2023-02-09T20:24:44.377Z,41.90
2023-02-09T20:27:51.825Z,58.20
2023-02-09T20:30:58.176Z,42.90
2023-02-09T20:37:12.167Z,43.80
2023-02-09T20:40:18.590Z,42.60
2023-02-09T20:43:42.602Z,46.00
2023-02-09T20:46:58.087Z,40.20
2023-02-09T20:50:05.166Z,41.50
2023-02-09T20:53:11.542Z,40.80
2023-02-09T20:56:17.758Z,37.80
2023-02-09T20:59:25.504Z,31.50
2023-02-09T21:02:31.811Z,20.40
2023-02-09T21:05:38.655Z,15.50
2023-02-09T21:08:44.911Z,14.70
2023-02-09T21:14:56.739Z,13.40
2023-02-09T21:18:03.116Z,13.30
2023-02-09T21:24:14.434Z,16.10
2023-02-09T21:30:26.068Z,9.00
2023-02-09T21:33:32.283Z,10.20
2023-02-09T21:42:49.994Z,10.30
2023-02-09T21:45:56.292Z,12.00
2023-02-09T21:49:02.934Z,10.30
2023-02-09T21:52:09.670Z,10.30
2023-02-09T21:55:17.099Z,12.90
2023-02-09T21:58:23.355Z,9.80
2023-02-09T22:04:34.355Z,10.40
2023-02-09T22:07:40.776Z,13.10
2023-02-09T22:10:48.901Z,11.00
2023-02-09T22:13:56.357Z,11.60
2023-02-09T22:17:02.920Z,16.00
2023-02-09T22:20:11.107Z,11.80
2023-02-09T22:23:18.669Z,16.40
2023-02-09T22:26:24.861Z,35.20
2023-02-09T22:29:33.374Z,13.60
2023-02-09T22:32:39.854Z,21.50
2023-02-09T22:35:46.409Z,16.50
2023-02-09T22:38:52.825Z,10.80
2023-02-09T22:45:06.145Z,10.20
2023-02-09T22:48:13.614Z,15.60
2023-02-09T22:51:20.809Z,11.50
2023-02-09T22:54:27.038Z,12.20
2023-02-09T23:00:37.821Z,10.90
2023-02-09T23:03:44.169Z,13.70
2023-02-09T23:06:50.466Z,16.30
2023-02-09T23:13:01.595Z,19.20
2023-02-09T23:16:16.012Z,32.50
2023-02-09T23:19:22.930Z,14.70
2023-02-09T23:22:29.240Z,20.70
2023-02-09T23:28:40.205Z,10.70
2023-02-09T23:34:51.384Z,10.10
2023-02-09T23:37:57.840Z,10.60
2023-02-09T23:41:08.957Z,10.60
2023-02-09T23:44:15.297Z,10.00
2023-02-09T23:47:21.541Z,10.30
2023-02-09T23:50:27.720Z,10.00
2023-02-09T23:53:35.262Z,10.10
2023-02-09T23:56:42.067Z,10.80
2023-02-09T23:59:48.500Z,16.10
